sensor_id;sensor_type;location;lat;lon;timestamp;pressure;altitude;pressure_sealevel;temperature;humidity
43745;BME280;29359;53.048;8.732;2022-10-31T00:00:54;102033.38;;;13.32;89.10
43745;BME280;29359;53.048;8.732;2022-10-31T00:02:55;102034.31;;;13.30;88.49
43745;BME280;29359;53.048;8.732;2022-10-31T00:04:57;102036.16;;;13.26;88.74
43745;BME280;29359;53.048;8.732;2022-10-31T00:06:59;102034.41;;;13.25;87.81
43745;BME280;29359;53.048;8.732;2022-10-31T00:09:03;102038.84;;;13.23;86.59
43745;BME280;29359;53.048;8.732;2022-10-31T00:11:08;102044.22;;;13.20;86.84
43745;BME280;29359;53.048;8.732;2022-10-31T00:13:11;102045.16;;;13.16;87.49
43745;BME280;29359;53.048;8.732;2022-10-31T00:15:13;102047.88;;;13.13;86.65
43745;BME280;29359;53.048;8.732;2022-10-31T00:17:14;102049.69;;;13.11;86.76
43745;BME280;29359;53.048;8.732;2022-10-31T00:19:16;102059.44;;;13.09;87.42
43745;BME280;29359;53.048;8.732;2022-10-31T00:21:18;102059.50;;;13.06;87.34
43745;BME280;29359;53.048;8.732;2022-10-31T00:23:20;102062.22;;;13.03;87.32
43745;BME280;29359;53.048;8.732;2022-10-31T00:25:21;102071.06;;;13.02;87.28
43745;BME280;29359;53.048;8.732;2022-10-31T00:27:23;102071.09;;;12.99;87.19
43745;BME280;29359;53.048;8.732;2022-10-31T00:29:24;102066.72;;;12.96;86.48
43745;BME280;29359;53.048;8.732;2022-10-31T00:31:25;102075.59;;;12.94;86.19
43745;BME280;29359;53.048;8.732;2022-10-31T00:33:27;102076.50;;;12.93;86.06
43745;BME280;29359;53.048;8.732;2022-10-31T00:35:29;102069.50;;;12.90;86.10
43745;BME280;29359;53.048;8.732;2022-10-31T00:37:30;102074.81;;;12.88;85.91
43745;BME280;29359;53.048;8.732;2022-10-31T00:39:32;102083.69;;;12.87;85.94
43745;BME280;29359;53.048;8.732;2022-10-31T00:41:33;102088.13;;;12.85;85.96
43745;BME280;29359;53.048;8.732;2022-10-31T00:43:35;102079.31;;;12.83;85.51
43745;BME280;29359;53.048;8.732;2022-10-31T00:45:36;102078.47;;;12.81;85.79
43745;BME280;29359;53.048;8.732;2022-10-31T00:47:38;102077.66;;;12.78;86.03
43745;BME280;29359;53.048;8.732;2022-10-31T00:49:39;102088.28;;;12.76;85.39
43745;BME280;29359;53.048;8.732;2022-10-31T00:51:41;102084.78;;;12.74;85.45
43745;BME280;29359;53.048;8.732;2022-10-31T00:53:42;102098.94;;;12.73;85.20
43745;BME280;29359;53.048;8.732;2022-10-31T00:55:44;102101.63;;;12.72;84.79
43745;BME280;29359;53.048;8.732;2022-10-31T00:57:46;102092.81;;;12.70;85.28
43745;BME280;29359;53.048;8.732;2022-10-31T00:59:48;102094.63;;;12.68;84.78
43745;BME280;29359;53.048;8.732;2022-10-31T01:01:49;102100.84;;;12.65;84.87
43745;BME280;29359;53.048;8.732;2022-10-31T01:03:51;102095.56;;;12.64;84.90
43745;BME280;29359;53.048;8.732;2022-10-31T01:06:12;102092.97;;;12.62;84.13
43745;BME280;29359;53.048;8.732;2022-10-31T01:08:14;102104.44;;;12.63;84.29
43745;BME280;29359;53.048;8.732;2022-10-31T01:10:15;102107.09;;;12.61;84.24
43745;BME280;29359;53.048;8.732;2022-10-31T01:12:17;102107.09;;;12.61;84.82
43745;BME280;29359;53.048;8.732;2022-10-31T01:14:18;102108.91;;;12.59;85.56
43745;BME280;29359;53.048;8.732;2022-10-31T01:16:24;102113.31;;;12.58;86.29
43745;BME280;29359;53.048;8.732;2022-10-31T01:18:27;102123.94;;;12.55;87.13
43745;BME280;29359;53.048;8.732;2022-10-31T01:20:28;102116.03;;;12.54;86.86
43745;BME280;29359;53.048;8.732;2022-10-31T01:22:30;102124.84;;;12.54;87.33
43745;BME280;29359;53.048;8.732;2022-10-31T01:24:32;102121.31;;;12.54;87.15
43745;BME280;29359;53.048;8.732;2022-10-31T01:26:33;102116.91;;;12.54;87.02
43745;BME280;29359;53.048;8.732;2022-10-31T01:28:36;102117.78;;;12.55;87.19
43745;BME280;29359;53.048;8.732;2022-10-31T01:30:38;102122.19;;;12.54;87.36
43745;BME280;29359;53.048;8.732;2022-10-31T01:32:39;102126.56;;;12.57;87.89
43745;BME280;29359;53.048;8.732;2022-10-31T01:34:41;102117.69;;;12.61;88.90
43745;BME280;29359;53.048;8.732;2022-10-31T01:36:44;102119.44;;;12.62;88.31
43745;BME280;29359;53.048;8.732;2022-10-31T01:38:48;102115.03;;;12.63;87.64
43745;BME280;29359;53.048;8.732;2022-10-31T01:40:51;102116.81;;;12.61;87.22
43745;BME280;29359;53.048;8.732;2022-10-31T01:42:52;102113.31;;;12.58;86.97
43745;BME280;29359;53.048;8.732;2022-10-31T01:44:57;102113.38;;;12.54;86.50
43745;BME280;29359;53.048;8.732;2022-10-31T01:47:06;102116.97;;;12.50;86.61
43745;BME280;29359;53.048;8.732;2022-10-31T01:49:11;102120.53;;;12.47;86.65
43745;BME280;29359;53.048;8.732;2022-10-31T01:51:17;102121.47;;;12.45;86.45
43745;BME280;29359;53.048;8.732;2022-10-31T01:53:22;102116.25;;;12.40;86.29
43745;BME280;29359;53.048;8.732;2022-10-31T01:55:33;102118.91;;;12.39;86.49
43745;BME280;29359;53.048;8.732;2022-10-31T01:57:39;102117.16;;;12.38;86.33
43745;BME280;29359;53.048;8.732;2022-10-31T01:59:46;102119.81;;;12.38;86.23
43745;BME280;29359;53.048;8.732;2022-10-31T02:01:50;102118.94;;;12.37;85.66
43745;BME280;29359;53.048;8.732;2022-10-31T02:03:54;102124.25;;;12.36;85.75
43745;BME280;29359;53.048;8.732;2022-10-31T02:05:56;102113.69;;;12.34;85.90
43745;BME280;29359;53.048;8.732;2022-10-31T02:08:14;102116.41;;;12.30;85.56
43745;BME280;29359;53.048;8.732;2022-10-31T02:10:19;102121.69;;;12.30;85.64
43745;BME280;29359;53.048;8.732;2022-10-31T02:12:22;102125.28;;;12.27;85.88
43745;BME280;29359;53.048;8.732;2022-10-31T02:14:25;102128.81;;;12.26;85.87
43745;BME280;29359;53.048;8.732;2022-10-31T02:16:28;102128.84;;;12.24;85.70
43745;BME280;29359;53.048;8.732;2022-10-31T02:18:30;102127.09;;;12.23;85.71
43745;BME280;29359;53.048;8.732;2022-10-31T02:28:02;102120.13;;;12.16;85.03
43745;BME280;29359;53.048;8.732;2022-10-31T02:30:15;102132.50;;;12.16;85.36
43745;BME280;29359;53.048;8.732;2022-10-31T02:32:26;102127.31;;;12.05;84.80
43745;BME280;29359;53.048;8.732;2022-10-31T02:34:50;102129.94;;;12.08;84.78
43745;BME280;29359;53.048;8.732;2022-10-31T02:37:02;102122.00;;;12.08;84.76
43745;BME280;29359;53.048;8.732;2022-10-31T02:39:15;102126.44;;;12.05;84.61
43745;BME280;29359;53.048;8.732;2022-10-31T02:41:30;102136.16;;;12.04;84.69
43745;BME280;29359;53.048;8.732;2022-10-31T02:43:54;102140.63;;;12.01;85.06
43745;BME280;29359;53.048;8.732;2022-10-31T02:46:18;102140.66;;;11.99;84.99
43745;BME280;29359;53.048;8.732;2022-10-31T02:48:26;102140.66;;;11.99;85.07
43745;BME280;29359;53.048;8.732;2022-10-31T02:50:31;102142.41;;;11.99;85.38
43745;BME280;29359;53.048;8.732;2022-10-31T02:52:35;102148.59;;;11.99;85.53
43745;BME280;29359;53.048;8.732;2022-10-31T02:54:37;102135.38;;;11.98;85.47
43745;BME280;29359;53.048;8.732;2022-10-31T02:56:38;102137.16;;;11.97;85.71
43745;BME280;29359;53.048;8.732;2022-10-31T02:58:44;102136.28;;;11.95;85.99
43745;BME280;29359;53.048;8.732;2022-10-31T03:05:47;102136.38;;;11.89;85.75
43745;BME280;29359;53.048;8.732;2022-10-31T03:08:05;102139.91;;;11.88;85.78
43745;BME280;29359;53.048;8.732;2022-10-31T03:10:24;102144.38;;;11.83;85.71
43745;BME280;29359;53.048;8.732;2022-10-31T03:12:37;102143.50;;;11.82;85.72
43745;BME280;29359;53.048;8.732;2022-10-31T03:14:56;102149.75;;;11.78;85.45
43745;BME280;29359;53.048;8.732;2022-10-31T03:17:05;102147.09;;;11.77;85.10
43745;BME280;29359;53.048;8.732;2022-10-31T03:19:16;102153.28;;;11.74;85.07
43745;BME280;29359;53.048;8.732;2022-10-31T03:21:27;102154.16;;;11.75;85.10
43745;BME280;29359;53.048;8.732;2022-10-31T03:23:32;102158.63;;;11.71;84.97
43745;BME280;29359;53.048;8.732;2022-10-31T03:25:36;102160.38;;;11.71;85.48
43745;BME280;29359;53.048;8.732;2022-10-31T03:27:39;102156.84;;;11.70;85.28
43745;BME280;29359;53.048;8.732;2022-10-31T03:29:44;102160.38;;;11.69;85.06
43745;BME280;29359;53.048;8.732;2022-10-31T03:31:51;102167.44;;;11.69;85.17
43745;BME280;29359;53.048;8.732;2022-10-31T03:33:56;102165.69;;;11.66;85.09
43745;BME280;29359;53.048;8.732;2022-10-31T03:36:02;102171.03;;;11.63;85.16
43745;BME280;29359;53.048;8.732;2022-10-31T03:38:06;102175.47;;;11.59;85.15
43745;BME280;29359;53.048;8.732;2022-10-31T03:40:10;102172.84;;;11.58;85.04
43745;BME280;29359;53.048;8.732;2022-10-31T03:42:16;102178.16;;;11.56;85.15
43745;BME280;29359;53.048;8.732;2022-10-31T03:44:21;102181.69;;;11.55;85.47
43745;BME280;29359;53.048;8.732;2022-10-31T03:46:23;102177.28;;;11.56;85.49
43745;BME280;29359;53.048;8.732;2022-10-31T03:48:25;102181.69;;;11.55;85.35
43745;BME280;29359;53.048;8.732;2022-10-31T03:50:36;102182.59;;;11.54;84.99
43745;BME280;29359;53.048;8.732;2022-10-31T03:52:59;102176.44;;;11.51;84.75
43745;BME280;29359;53.048;8.732;2022-10-31T03:55:10;102186.16;;;11.50;84.96
43745;BME280;29359;53.048;8.732;2022-10-31T04:00:05;102184.44;;;11.46;84.67
43745;BME280;29359;53.048;8.732;2022-10-31T04:02:11;102180.06;;;11.44;84.69
43745;BME280;29359;53.048;8.732;2022-10-31T04:04:15;102187.13;;;11.42;84.71
43745;BME280;29359;53.048;8.732;2022-10-31T04:06:18;102181.84;;;11.40;84.80
43745;BME280;29359;53.048;8.732;2022-10-31T04:08:23;102182.75;;;11.39;84.78
43745;BME280;29359;53.048;8.732;2022-10-31T04:10:27;102181.91;;;11.36;84.78
43745;BME280;29359;53.048;8.732;2022-10-31T04:12:34;102189.84;;;11.34;84.87
43745;BME280;29359;53.048;8.732;2022-10-31T04:14:38;102195.16;;;11.32;84.90
43745;BME280;29359;53.048;8.732;2022-10-31T04:16:42;102200.47;;;11.29;84.88
43745;BME280;29359;53.048;8.732;2022-10-31T04:18:44;102194.34;;;11.27;86.72
43745;BME280;29359;53.048;8.732;2022-10-31T04:20:47;102203.13;;;11.29;87.89
43745;BME280;29359;53.048;8.732;2022-10-31T04:22:49;102195.19;;;11.31;87.42
43745;BME280;29359;53.048;8.732;2022-10-31T04:24:51;102196.03;;;11.33;87.04
43745;BME280;29359;53.048;8.732;2022-10-31T04:26:52;102196.03;;;11.33;87.04
43745;BME280;29359;53.048;8.732;2022-10-31T04:28:54;102196.91;;;11.35;87.27
43745;BME280;29359;53.048;8.732;2022-10-31T04:30:55;102202.19;;;11.35;87.63
43745;BME280;29359;53.048;8.732;2022-10-31T04:32:57;102204.81;;;11.38;88.80
43745;BME280;29359;53.048;8.732;2022-10-31T04:34:59;102192.44;;;11.40;89.08
43745;BME280;29359;53.048;8.732;2022-10-31T04:37:00;102204.72;;;11.44;89.84
43745;BME280;29359;53.048;8.732;2022-10-31T04:39:02;102205.59;;;11.46;90.49
43745;BME280;29359;53.048;8.732;2022-10-31T04:41:03;102201.16;;;11.48;91.60
43745;BME280;29359;53.048;8.732;2022-10-31T04:43:05;102205.53;;;11.51;92.42
43745;BME280;29359;53.048;8.732;2022-10-31T04:45:06;102198.47;;;11.53;92.76
43745;BME280;29359;53.048;8.732;2022-10-31T04:47:08;102202.88;;;11.54;93.45
43745;BME280;29359;53.048;8.732;2022-10-31T04:49:09;102198.44;;;11.54;93.70
43745;BME280;29359;53.048;8.732;2022-10-31T04:51:11;102206.38;;;11.56;94.27
43745;BME280;29359;53.048;8.732;2022-10-31T04:53:12;102206.34;;;11.59;95.12
43745;BME280;29359;53.048;8.732;2022-10-31T04:55:14;102206.34;;;11.59;95.14
43745;BME280;29359;53.048;8.732;2022-10-31T04:57:16;102198.38;;;11.60;95.73
43745;BME280;29359;53.048;8.732;2022-10-31T04:59:17;102203.69;;;11.60;96.17
43745;BME280;29359;53.048;8.732;2022-10-31T05:01:19;102201.91;;;11.61;96.31
43745;BME280;29359;53.048;8.732;2022-10-31T05:03:20;102201.00;;;11.62;96.66
43745;BME280;29359;53.048;8.732;2022-10-31T05:05:30;102194.84;;;11.61;96.72
43745;BME280;29359;53.048;8.732;2022-10-31T05:07:32;102201.91;;;11.62;97.11
43745;BME280;29359;53.048;8.732;2022-10-31T05:09:33;102194.84;;;11.61;97.18
43745;BME280;29359;53.048;8.732;2022-10-31T05:11:35;102192.25;;;11.58;97.20
43745;BME280;29359;53.048;8.732;2022-10-31T05:13:36;102195.81;;;11.54;97.69
43745;BME280;29359;53.048;8.732;2022-10-31T05:15:38;102186.97;;;11.55;97.63
43745;BME280;29359;53.048;8.732;2022-10-31T05:17:39;102186.97;;;11.55;97.68
43745;BME280;29359;53.048;8.732;2022-10-31T05:19:41;102183.50;;;11.52;97.56
43745;BME280;29359;53.048;8.732;2022-10-31T05:21:42;102192.34;;;11.48;98.03
43745;BME280;29359;53.048;8.732;2022-10-31T05:23:44;102183.56;;;11.46;98.12
43745;BME280;29359;53.048;8.732;2022-10-31T05:25:48;102185.34;;;11.45;98.31
43745;BME280;29359;53.048;8.732;2022-10-31T05:27:51;102182.69;;;11.45;97.16
43745;BME280;29359;53.048;8.732;2022-10-31T05:29:53;102180.06;;;11.42;95.64
43745;BME280;29359;53.048;8.732;2022-10-31T05:31:55;102178.31;;;11.41;94.45
43745;BME280;29359;53.048;8.732;2022-10-31T05:33:56;102183.63;;;11.40;94.32
43745;BME280;29359;53.048;8.732;2022-10-31T05:35:57;102180.13;;;11.38;93.97
43745;BME280;29359;53.048;8.732;2022-10-31T05:37:59;102175.75;;;11.35;93.40
43745;BME280;29359;53.048;8.732;2022-10-31T05:40:03;102174.88;;;11.33;92.88
43745;BME280;29359;53.048;8.732;2022-10-31T05:42:08;102181.97;;;11.29;92.98
43745;BME280;29359;53.048;8.732;2022-10-31T05:44:10;102189.03;;;11.27;92.86
43745;BME280;29359;53.048;8.732;2022-10-31T05:46:11;102181.09;;;11.24;92.09
43745;BME280;29359;53.048;8.732;2022-10-31T05:48:13;102181.97;;;11.25;91.14
43745;BME280;29359;53.048;8.732;2022-10-31T05:50:14;102192.56;;;11.25;90.64
43745;BME280;29359;53.048;8.732;2022-10-31T05:52:16;102188.16;;;11.24;90.41
43745;BME280;29359;53.048;8.732;2022-10-31T05:54:17;102194.34;;;11.23;90.03
43745;BME280;29359;53.048;8.732;2022-10-31T05:56:19;102193.47;;;11.21;89.83
43745;BME280;29359;53.048;8.732;2022-10-31T05:58:20;102193.50;;;11.19;89.50
43745;BME280;29359;53.048;8.732;2022-10-31T06:00:23;102200.56;;;11.16;90.09
43745;BME280;29359;53.048;8.732;2022-10-31T06:02:24;102202.41;;;11.09;90.14
43745;BME280;29359;53.048;8.732;2022-10-31T06:04:27;102200.69;;;11.05;90.18
43745;BME280;29359;53.048;8.732;2022-10-31T06:06:29;102203.34;;;11.02;89.55
43745;BME280;29359;53.048;8.732;2022-10-31T06:08:31;102198.94;;;11.01;88.69
43745;BME280;29359;53.048;8.732;2022-10-31T06:10:32;102204.22;;;11.02;88.44
43745;BME280;29359;53.048;8.732;2022-10-31T06:12:35;102207.75;;;11.03;87.81
43745;BME280;29359;53.048;8.732;2022-10-31T06:14:39;102208.63;;;11.02;87.24
43745;BME280;29359;53.048;8.732;2022-10-31T06:16:40;102208.63;;;11.00;87.30
43745;BME280;29359;53.048;8.732;2022-10-31T06:18:42;102207.75;;;11.01;86.68
43745;BME280;29359;53.048;8.732;2022-10-31T06:20:43;102207.75;;;11.01;86.56
43745;BME280;29359;53.048;8.732;2022-10-31T06:22:45;102208.63;;;11.02;86.53
43745;BME280;29359;53.048;8.732;2022-10-31T06:24:46;102213.03;;;11.01;86.26
43745;BME280;29359;53.048;8.732;2022-10-31T06:26:48;102221.84;;;11.00;86.44
43745;BME280;29359;53.048;8.732;2022-10-31T06:28:49;102225.41;;;10.96;86.67
43745;BME280;29359;53.048;8.732;2022-10-31T06:30:51;102229.84;;;10.94;86.53
43745;BME280;29359;53.048;8.732;2022-10-31T06:32:53;102227.22;;;10.91;86.62
43745;BME280;29359;53.048;8.732;2022-10-31T06:34:54;102224.59;;;10.88;86.62
43745;BME280;29359;53.048;8.732;2022-10-31T06:36:55;102226.38;;;10.86;86.59
43745;BME280;29359;53.048;8.732;2022-10-31T06:38:57;102221.94;;;10.84;86.93
43745;BME280;29359;53.048;8.732;2022-10-31T06:41:05;102227.25;;;10.82;86.63
43745;BME280;29359;53.048;8.732;2022-10-31T06:43:06;102230.78;;;10.81;86.67
43745;BME280;29359;53.048;8.732;2022-10-31T06:45:08;102229.00;;;10.83;86.91
43745;BME280;29359;53.048;8.732;2022-10-31T06:47:09;102229.91;;;10.85;86.71
43745;BME280;29359;53.048;8.732;2022-10-31T06:49:11;102226.38;;;10.86;86.60
43745;BME280;29359;53.048;8.732;2022-10-31T06:51:12;102229.00;;;10.88;87.03
43745;BME280;29359;53.048;8.732;2022-10-31T06:53:14;102233.41;;;10.89;87.29
43745;BME280;29359;53.048;8.732;2022-10-31T06:55:15;102241.34;;;10.84;87.44
43745;BME280;29359;53.048;8.732;2022-10-31T06:57:18;102235.22;;;10.78;89.18
43745;BME280;29359;53.048;8.732;2022-10-31T06:59:19;102231.72;;;10.73;89.74
43745;BME280;29359;53.048;8.732;2022-10-31T07:01:21;102244.06;;;10.72;89.63
43745;BME280;29359;53.048;8.732;2022-10-31T07:03:22;102239.66;;;10.73;89.80
43745;BME280;29359;53.048;8.732;2022-10-31T07:05:25;102247.56;;;10.73;89.44
43745;BME280;29359;53.048;8.732;2022-10-31T07:07:27;102251.97;;;10.72;89.71
43745;BME280;29359;53.048;8.732;2022-10-31T07:09:28;102257.25;;;10.72;90.21
43745;BME280;29359;53.048;8.732;2022-10-31T07:11:30;102262.53;;;10.74;89.74
43745;BME280;29359;53.048;8.732;2022-10-31T07:13:31;102264.28;;;10.78;90.38
43745;BME280;29359;53.048;8.732;2022-10-31T07:15:34;102265.16;;;10.77;91.27
43745;BME280;29359;53.048;8.732;2022-10-31T07:17:36;102264.28;;;10.78;92.42
43745;BME280;29359;53.048;8.732;2022-10-31T07:19:38;102262.50;;;10.80;92.96
43745;BME280;29359;53.048;8.732;2022-10-31T07:21:39;102258.09;;;10.85;93.29
43745;BME280;29359;53.048;8.732;2022-10-31T07:23:41;102251.03;;;10.87;93.58
43745;BME280;29359;53.048;8.732;2022-10-31T07:25:42;102246.59;;;10.90;93.76
43745;BME280;29359;53.048;8.732;2022-10-31T07:27:44;102249.22;;;10.92;93.77
43745;BME280;29359;53.048;8.732;2022-10-31T07:29:45;102255.41;;;10.91;94.28
43745;BME280;29359;53.048;8.732;2022-10-31T07:31:47;102258.91;;;10.93;94.66
43745;BME280;29359;53.048;8.732;2022-10-31T07:33:48;102255.38;;;10.92;94.96
43745;BME280;29359;53.048;8.732;2022-10-31T07:35:50;102250.09;;;10.94;95.00
43745;BME280;29359;53.048;8.732;2022-10-31T07:37:51;102251.84;;;10.95;94.70
43745;BME280;29359;53.048;8.732;2022-10-31T07:39:52;102258.88;;;10.99;94.68
43745;BME280;29359;53.048;8.732;2022-10-31T07:41:54;102253.56;;;11.00;94.12
43745;BME280;29359;53.048;8.732;2022-10-31T07:43:58;102255.31;;;11.03;94.03
43745;BME280;29359;53.048;8.732;2022-10-31T07:46:00;102242.97;;;11.05;93.50
43745;BME280;29359;53.048;8.732;2022-10-31T07:48:02;102246.44;;;11.09;93.29
43745;BME280;29359;53.048;8.732;2022-10-31T07:50:04;102249.97;;;11.11;93.11
43745;BME280;29359;53.048;8.732;2022-10-31T07:52:05;102250.84;;;11.10;93.36
43745;BME280;29359;53.048;8.732;2022-10-31T07:54:07;102257.91;;;11.08;94.08
43745;BME280;29359;53.048;8.732;2022-10-31T07:56:08;102258.78;;;11.08;94.57
43745;BME280;29359;53.048;8.732;2022-10-31T07:58:16;102259.66;;;11.09;94.86
43745;BME280;29359;53.048;8.732;2022-10-31T08:00:18;102258.78;;;11.08;94.35
43745;BME280;29359;53.048;8.732;2022-10-31T08:02:20;102259.66;;;11.12;93.12
43745;BME280;29359;53.048;8.732;2022-10-31T08:04:21;102264.88;;;11.18;91.78
43745;BME280;29359;53.048;8.732;2022-10-31T08:06:23;102263.09;;;11.21;91.88
43745;BME280;29359;53.048;8.732;2022-10-31T08:08:24;102267.50;;;11.21;91.97
43745;BME280;29359;53.048;8.732;2022-10-31T08:10:32;102268.38;;;11.21;92.67
43745;BME280;29359;53.048;8.732;2022-10-31T08:12:33;102260.44;;;11.23;92.96
43745;BME280;29359;53.048;8.732;2022-10-31T08:14:35;102263.09;;;11.21;93.61
43745;BME280;29359;53.048;8.732;2022-10-31T08:16:36;102263.09;;;11.20;94.16
43745;BME280;29359;53.048;8.732;2022-10-31T08:18:38;102255.13;;;11.23;94.34
43745;BME280;29359;53.048;8.732;2022-10-31T08:20:41;102256.00;;;11.28;94.07
43745;BME280;29359;53.048;8.732;2022-10-31T08:22:42;102250.66;;;11.34;94.04
43745;BME280;29359;53.048;8.732;2022-10-31T08:24:44;102252.38;;;11.41;93.70
43745;BME280;29359;53.048;8.732;2022-10-31T08:26:45;102253.19;;;11.46;92.81
43745;BME280;29359;53.048;8.732;2022-10-31T08:28:47;102254.91;;;11.52;92.81
43745;BME280;29359;53.048;8.732;2022-10-31T08:30:48;102256.63;;;11.57;92.83
43745;BME280;29359;53.048;8.732;2022-10-31T08:33:02;102248.63;;;11.62;93.26
43745;BME280;29359;53.048;8.732;2022-10-31T08:35:04;102253.00;;;11.66;93.43
43745;BME280;29359;53.048;8.732;2022-10-31T08:37:05;102251.22;;;11.68;92.69
43745;BME280;29359;53.048;8.732;2022-10-31T08:39:07;102253.84;;;11.73;92.03
43745;BME280;29359;53.048;8.732;2022-10-31T08:41:08;102254.69;;;11.78;91.36
43745;BME280;29359;53.048;8.732;2022-10-31T08:43:14;102254.66;;;11.82;90.81
43745;BME280;29359;53.048;8.732;2022-10-31T08:45:16;102244.97;;;11.81;91.96
43745;BME280;29359;53.048;8.732;2022-10-31T08:47:18;102252.03;;;11.81;92.79
43745;BME280;29359;53.048;8.732;2022-10-31T08:49:19;102251.09;;;11.85;93.33
43745;BME280;29359;53.048;8.732;2022-10-31T08:51:20;102245.75;;;11.88;93.52
43745;BME280;29359;53.048;8.732;2022-10-31T08:53:22;102252.78;;;11.92;94.37
43745;BME280;29359;53.048;8.732;2022-10-31T08:55:23;102257.16;;;11.94;94.81
43745;BME280;29359;53.048;8.732;2022-10-31T08:57:25;102252.69;;;12.00;95.43
43745;BME280;29359;53.048;8.732;2022-10-31T08:59:26;102249.09;;;12.05;95.96
43745;BME280;29359;53.048;8.732;2022-10-31T09:01:28;102243.69;;;12.13;96.09
43745;BME280;29359;53.048;8.732;2022-10-31T09:03:30;102247.19;;;12.19;96.04
43745;BME280;29359;53.048;8.732;2022-10-31T09:05:33;102240.03;;;12.26;96.70
43745;BME280;29359;53.048;8.732;2022-10-31T09:07:35;102238.19;;;12.33;96.43
43745;BME280;29359;53.048;8.732;2022-10-31T09:09:36;102238.09;;;12.39;96.50
43745;BME280;29359;53.048;8.732;2022-10-31T09:11:38;102241.56;;;12.42;96.07
43745;BME280;29359;53.048;8.732;2022-10-31T09:13:39;102251.19;;;12.49;96.03
43745;BME280;29359;53.048;8.732;2022-10-31T09:15:43;102235.22;;;12.54;95.81
43745;BME280;29359;53.048;8.732;2022-10-31T09:17:48;102243.16;;;12.58;95.47
43745;BME280;29359;53.048;8.732;2022-10-31T09:19:49;102241.31;;;12.62;95.14
43745;BME280;29359;53.048;8.732;2022-10-31T09:21:54;102239.50;;;12.66;94.68
43745;BME280;29359;53.048;8.732;2022-10-31T09:23:55;102236.78;;;12.70;94.89
43745;BME280;29359;53.048;8.732;2022-10-31T09:25:59;102242.06;;;12.72;94.04
43745;BME280;29359;53.048;8.732;2022-10-31T09:28:03;102231.41;;;12.75;93.34
43745;BME280;29359;53.048;8.732;2022-10-31T09:30:05;102222.53;;;12.77;92.86
43745;BME280;29359;53.048;8.732;2022-10-31T09:32:07;102228.66;;;12.82;92.72
43745;BME280;29359;53.048;8.732;2022-10-31T09:34:08;102229.47;;;12.86;91.93
43745;BME280;29359;53.048;8.732;2022-10-31T09:36:10;102225.94;;;12.85;88.73
43745;BME280;29359;53.048;8.732;2022-10-31T09:38:17;102225.88;;;12.90;86.23
43745;BME280;29359;53.048;8.732;2022-10-31T09:40:20;102225.94;;;12.87;82.63
43745;BME280;29359;53.048;8.732;2022-10-31T09:42:36;102230.22;;;12.94;80.39
43745;BME280;29359;53.048;8.732;2022-10-31T09:45:07;102221.25;;;13.04;80.10
43745;BME280;29359;53.048;8.732;2022-10-31T09:50:02;102223.63;;;13.23;79.13
43745;BME280;29359;53.048;8.732;2022-10-31T09:52:20;102224.28;;;13.35;79.84
43745;BME280;29359;53.048;8.732;2022-10-31T09:54:33;102220.50;;;13.50;81.36
43745;BME280;29359;53.048;8.732;2022-10-31T09:56:36;102221.09;;;13.66;83.20
43745;BME280;29359;53.048;8.732;2022-10-31T09:58:42;102224.47;;;13.74;80.78
43745;BME280;29359;53.048;8.732;2022-10-31T10:00:45;102227.75;;;13.88;81.09
43745;BME280;29359;53.048;8.732;2022-10-31T10:03:11;102227.56;;;13.97;82.13
43745;BME280;29359;53.048;8.732;2022-10-31T10:05:29;102225.78;;;13.98;83.60
43745;BME280;29359;53.048;8.732;2022-10-31T10:07:52;102217.91;;;13.93;82.91
43745;BME280;29359;53.048;8.732;2022-10-31T10:09:57;102220.59;;;13.92;80.99
43745;BME280;29359;53.048;8.732;2022-10-31T10:12:05;102223.09;;;13.99;82.51
43745;BME280;29359;53.048;8.732;2022-10-31T10:26:30;102228.75;;;14.26;86.81
43745;BME280;29359;53.048;8.732;2022-10-31T10:28:39;102233.97;;;14.29;86.40
43745;BME280;29359;53.048;8.732;2022-10-31T10:30:49;102232.03;;;14.38;86.18
43745;BME280;29359;53.048;8.732;2022-10-31T10:33:19;102227.50;;;14.45;87.66
43745;BME280;29359;53.048;8.732;2022-10-31T10:35:34;102231.81;;;14.49;87.43
43745;BME280;29359;53.048;8.732;2022-10-31T10:37:39;102236.25;;;14.49;89.20
43745;BME280;29359;53.048;8.732;2022-10-31T10:39:45;102229.16;;;14.49;90.53
43745;BME280;29359;53.048;8.732;2022-10-31T10:41:49;102229.19;;;14.48;91.26
43745;BME280;29359;53.048;8.732;2022-10-31T10:44:10;102230.81;;;14.55;91.78
43745;BME280;29359;53.048;8.732;2022-10-31T10:49:25;102230.09;;;14.87;91.55
43745;BME280;29359;53.048;8.732;2022-10-31T10:51:22;102222.28;;;15.15;92.08
43745;BME280;29359;53.048;8.732;2022-10-31T10:56:30;102221.84;;;15.68;89.70
43745;BME280;29359;53.048;8.732;2022-10-31T10:58:32;102214.03;;;15.93;89.08
43745;BME280;29359;53.048;8.732;2022-10-31T11:02:42;102202.94;;;16.38;84.92
43745;BME280;29359;53.048;8.732;2022-10-31T11:04:54;102202.41;;;16.56;83.94
43745;BME280;29359;53.048;8.732;2022-10-31T11:06:57;102195.88;;;16.67;82.85
43745;BME280;29359;53.048;8.732;2022-10-31T11:09:08;102195.28;;;16.85;83.24
43745;BME280;29359;53.048;8.732;2022-10-31T11:13:23;102199.41;;;17.48;80.51
43745;BME280;29359;53.048;8.732;2022-10-31T11:15:26;102202.19;;;17.70;79.25
43745;BME280;29359;53.048;8.732;2022-10-31T11:17:39;102203.69;;;18.02;78.90
43745;BME280;29359;53.048;8.732;2022-10-31T11:19:41;102202.38;;;18.37;77.71
43745;BME280;29359;53.048;8.732;2022-10-31T11:21:43;102202.94;;;18.68;75.55
43745;BME280;29359;53.048;8.732;2022-10-31T11:24:14;102206.09;;;19.00;74.63
43745;BME280;29359;53.048;8.732;2022-10-31T11:26:20;102200.81;;;18.98;72.55
43745;BME280;29359;53.048;8.732;2022-10-31T11:28:22;102194.63;;;18.76;73.06
43745;BME280;29359;53.048;8.732;2022-10-31T11:30:24;102191.88;;;18.77;73.20